EDV5106 KSYR-KMSP
Flight info
| Callsign | EDV5106 |
|---|---|
| Flight time | N/A |
| Altitude | 34000 |
| Route | SYR DINES AHPAH Q816 AGDOX Q812 NOSIK ZOHAN IDIOM MUSCL4 |
| Aircraft | CRJ9/M-SDFGIRWY/S |
Departure
| Time | 2026-04-27 21:51 |
|---|---|
| Airport | Syracuse Hancock International Airport (KSYR) |
Arrival
| Time | N/A |
|---|---|
| Airport | Minneapolis–Saint Paul International Airport / Wold–Chamberlain Field (KMSP) |
| Time | Latitude | Longitude | Altitude | Speed | Heading |
|---|---|---|---|---|---|
| 2026-04-27 21:24 | 43.11507 | -76.10915 | 417 ft | 0 kts | 272° |
| 2026-04-27 21:42 | 43.11506 | -76.10905 | 422 ft | 2 kts | 272° |
| 2026-04-27 21:42 | 43.11507 | -76.10880 | 413 ft | 3 kts | 254° |
| 2026-04-27 21:42 | 43.11516 | -76.10861 | 414 ft | 3 kts | 212° |
| 2026-04-27 21:42 | 43.11533 | -76.10856 | 419 ft | 3 kts | 178° |
| 2026-04-27 21:43 | 43.11542 | -76.10856 | 416 ft | 0 kts | 174° |
| 2026-04-27 21:45 | 43.11533 | -76.10855 | 419 ft | 4 kts | 170° |
| 2026-04-27 21:45 | 43.11468 | -76.10840 | 417 ft | 13 kts | 176° |
| 2026-04-27 21:45 | 43.11418 | -76.10834 | 420 ft | 0 kts | 166° |
| 2026-04-27 21:46 | 43.11417 | -76.10834 | 420 ft | 1 kts | 165° |
| 2026-04-27 21:46 | 43.11406 | -76.10814 | 416 ft | 7 kts | 101° |
| 2026-04-27 21:46 | 43.11351 | -76.10738 | 414 ft | 18 kts | 175° |
| 2026-04-27 21:46 | 43.11215 | -76.10728 | 416 ft | 20 kts | 176° |
| 2026-04-27 21:47 | 43.11081 | -76.10720 | 418 ft | 19 kts | 180° |
| 2026-04-27 21:47 | 43.11004 | -76.10818 | 418 ft | 17 kts | 266° |
| 2026-04-27 21:47 | 43.10997 | -76.10979 | 423 ft | 17 kts | 268° |
| 2026-04-27 21:47 | 43.10992 | -76.11135 | 423 ft | 16 kts | 266° |
| 2026-04-27 21:48 | 43.10987 | -76.11289 | 414 ft | 16 kts | 263° |
| 2026-04-27 21:48 | 43.10982 | -76.11441 | 416 ft | 16 kts | 268° |
| 2026-04-27 21:48 | 43.10978 | -76.11591 | 422 ft | 16 kts | 268° |
| 2026-04-27 21:48 | 43.10972 | -76.11749 | 413 ft | 18 kts | 269° |
| 2026-04-27 21:49 | 43.10966 | -76.11927 | 422 ft | 19 kts | 269° |
| 2026-04-27 21:49 | 43.10960 | -76.12115 | 422 ft | 20 kts | 269° |
| 2026-04-27 21:49 | 43.10953 | -76.12322 | 422 ft | 24 kts | 266° |
| 2026-04-27 21:49 | 43.10947 | -76.12526 | 417 ft | 10 kts | 269° |
| 2026-04-27 21:50 | 43.10943 | -76.12608 | 414 ft | 5 kts | 233° |
| 2026-04-27 21:50 | 43.10930 | -76.12623 | 416 ft | 2 kts | 210° |
| 2026-04-27 21:50 | 43.10894 | -76.12630 | 420 ft | 11 kts | 172° |
| 2026-04-27 21:50 | 43.10824 | -76.12534 | 421 ft | 17 kts | 94° |
| 2026-04-27 21:51 | 43.10835 | -76.12232 | 422 ft | 61 kts | 87° |
| 2026-04-27 21:51 | 43.10864 | -76.11303 | 421 ft | 131 kts | 87° |
| 2026-04-27 21:51 | 43.10909 | -76.09805 | 501 ft | 176 kts | 85° |
| 2026-04-27 21:51 | 43.10941 | -76.08135 | 1373 ft | 169 kts | 90° |
| 2026-04-27 21:52 | 43.11000 | -76.06502 | 2119 ft | 181 kts | 88° |
| 2026-04-27 21:52 | 43.11104 | -76.04647 | 2489 ft | 210 kts | 88° |
| 2026-04-27 21:52 | 43.11217 | -76.02531 | 2990 ft | 237 kts | 88° |
| 2026-04-27 21:52 | 43.11341 | -76.00137 | 3334 ft | 276 kts | 88° |
| 2026-04-27 21:53 | 43.11573 | -75.97509 | 4427 ft | 273 kts | 75° |
| 2026-04-27 21:53 | 43.12515 | -75.95299 | 5670 ft | 272 kts | 47° |
| 2026-04-27 21:53 | 43.14140 | -75.93927 | 6453 ft | 281 kts | 18° |
| 2026-04-27 21:53 | 43.16092 | -75.93685 | 7227 ft | 285 kts | 353° |
| 2026-04-27 21:54 | 43.18074 | -75.94072 | 8034 ft | 288 kts | 350° |
| 2026-04-27 21:54 | 43.20063 | -75.94558 | 8839 ft | 290 kts | 349° |
| 2026-04-27 21:54 | 43.22047 | -75.95089 | 9718 ft | 290 kts | 348° |
| 2026-04-27 21:54 | 43.23994 | -75.95690 | 10463 ft | 295 kts | 341° |
| 2026-04-27 21:55 | 43.25843 | -75.97073 | 10834 ft | 311 kts | 325° |
| 2026-04-27 21:55 | 43.27360 | -75.99205 | 11417 ft | 317 kts | 298° |
| 2026-04-27 21:55 | 43.27968 | -76.02099 | 12150 ft | 320 kts | 277° |
| 2026-04-27 21:55 | 43.28157 | -76.05169 | 12880 ft | 323 kts | 273° |
| 2026-04-27 21:56 | 43.28245 | -76.08278 | 13621 ft | 327 kts | 272° |
| 2026-04-27 21:56 | 43.28273 | -76.14594 | 14997 ft | 334 kts | 271° |
| 2026-04-27 21:56 | 43.28255 | -76.17800 | 15652 ft | 337 kts | 271° |
| 2026-04-27 21:57 | 43.28294 | -76.21025 | 16302 ft | 339 kts | 273° |
| 2026-04-27 21:57 | 43.28400 | -76.24231 | 16932 ft | 342 kts | 275° |
| 2026-04-27 21:57 | 43.28536 | -76.27532 | 17565 ft | 345 kts | 274° |
| 2026-04-27 21:57 | 43.28657 | -76.30824 | 18158 ft | 348 kts | 274° |
| 2026-04-27 21:58 | 43.28772 | -76.34155 | 18722 ft | 351 kts | 274° |
| 2026-04-27 21:58 | 43.28885 | -76.37508 | 19235 ft | 353 kts | 274° |
| 2026-04-27 21:58 | 43.28997 | -76.40884 | 19756 ft | 355 kts | 274° |
| 2026-04-27 21:58 | 43.29108 | -76.44281 | 20267 ft | 357 kts | 275° |
| 2026-04-27 21:59 | 43.29221 | -76.47700 | 20763 ft | 360 kts | 275° |
| 2026-04-27 21:59 | 43.29333 | -76.51141 | 21266 ft | 362 kts | 275° |
| 2026-04-27 21:59 | 43.29446 | -76.54610 | 21748 ft | 364 kts | 275° |
| 2026-04-27 21:59 | 43.29554 | -76.58046 | 22227 ft | 366 kts | 274° |
| 2026-04-27 22:00 | 43.29666 | -76.61547 | 22698 ft | 368 kts | 275° |
| 2026-04-27 22:00 | 43.29776 | -76.65077 | 23165 ft | 370 kts | 275° |
| 2026-04-27 22:00 | 43.29886 | -76.68622 | 23610 ft | 373 kts | 275° |
| 2026-04-27 22:00 | 43.29995 | -76.72188 | 24018 ft | 374 kts | 274° |
| 2026-04-27 22:01 | 43.30102 | -76.75752 | 24434 ft | 375 kts | 275° |
| 2026-04-27 22:01 | 43.30210 | -76.79334 | 24833 ft | 375 kts | 275° |
| 2026-04-27 22:01 | 43.30316 | -76.82925 | 25217 ft | 376 kts | 275° |
| 2026-04-27 22:01 | 43.30421 | -76.86470 | 25581 ft | 377 kts | 275° |
| 2026-04-27 22:02 | 43.30526 | -76.90075 | 25942 ft | 378 kts | 275° |
| 2026-04-27 22:02 | 43.30630 | -76.93684 | 26294 ft | 378 kts | 275° |
| 2026-04-27 22:02 | 43.30732 | -76.97299 | 26637 ft | 379 kts | 275° |
| 2026-04-27 22:02 | 43.30834 | -77.00921 | 26967 ft | 380 kts | 275° |
| 2026-04-27 22:03 | 43.30934 | -77.04547 | 27284 ft | 381 kts | 275° |
| 2026-04-27 22:03 | 43.31035 | -77.08191 | 27607 ft | 382 kts | 275° |
| 2026-04-27 22:03 | 43.31127 | -77.11841 | 27912 ft | 383 kts | 275° |
| 2026-04-27 22:03 | 43.31194 | -77.15512 | 28207 ft | 385 kts | 274° |
| 2026-04-27 22:04 | 43.31206 | -77.19196 | 28510 ft | 386 kts | 273° |
| 2026-04-27 22:04 | 43.31204 | -77.21641 | 28684 ft | 387 kts | 273° |
| 2026-04-27 22:04 | 43.31187 | -77.25719 | 29000 ft | 389 kts | 273° |
| 2026-04-27 22:04 | 43.31170 | -77.29445 | 29260 ft | 390 kts | 273° |
| 2026-04-27 22:05 | 43.31155 | -77.33121 | 29546 ft | 391 kts | 273° |
| 2026-04-27 22:05 | 43.31140 | -77.36904 | 29805 ft | 392 kts | 273° |
| 2026-04-27 22:05 | 43.31124 | -77.40612 | 30061 ft | 393 kts | 273° |
| 2026-04-27 22:05 | 43.31106 | -77.44373 | 30303 ft | 394 kts | 273° |
| 2026-04-27 22:06 | 43.31085 | -77.48143 | 30494 ft | 395 kts | 273° |
| 2026-04-27 22:06 | 43.31060 | -77.51924 | 30690 ft | 397 kts | 274° |
| 2026-04-27 22:06 | 43.31038 | -77.55719 | 30879 ft | 398 kts | 274° |
| 2026-04-27 22:06 | 43.31015 | -77.59523 | 31061 ft | 399 kts | 274° |
| 2026-04-27 22:07 | 43.30991 | -77.63329 | 31253 ft | 400 kts | 274° |
| 2026-04-27 22:07 | 43.30964 | -77.67169 | 31440 ft | 401 kts | 274° |
| 2026-04-27 22:07 | 43.30947 | -77.69697 | 31561 ft | 401 kts | 274° |
| 2026-04-27 22:07 | 43.30908 | -77.74841 | 31803 ft | 403 kts | 274° |
| 2026-04-27 22:08 | 43.30887 | -77.77376 | 31993 ft | 401 kts | 275° |
| 2026-04-27 22:08 | 43.30853 | -77.81204 | 32269 ft | 400 kts | 275° |
| 2026-04-27 22:08 | 43.30819 | -77.85017 | 32516 ft | 399 kts | 275° |
| 2026-04-27 22:08 | 43.30786 | -77.88826 | 32753 ft | 398 kts | 275° |
| 2026-04-27 22:09 | 43.30753 | -77.92614 | 32971 ft | 397 kts | 275° |
| 2026-04-27 22:09 | 43.30718 | -77.96411 | 33203 ft | 396 kts | 275° |
| 2026-04-27 22:09 | 43.30680 | -78.00197 | 33417 ft | 396 kts | 275° |
| 2026-04-27 22:09 | 43.30641 | -78.03970 | 33612 ft | 395 kts | 275° |
| 2026-04-27 22:10 | 43.30601 | -78.07734 | 33853 ft | 394 kts | 276° |
| 2026-04-27 22:10 | 43.30561 | -78.11434 | 34023 ft | 394 kts | 275° |
| 2026-04-27 22:10 | 43.30488 | -78.15228 | 34103 ft | 397 kts | 275° |
| 2026-04-27 22:11 | 43.30298 | -78.22871 | 34155 ft | 404 kts | 274° |
| 2026-04-27 22:11 | 43.30099 | -78.30650 | 34174 ft | 411 kts | 274° |
| 2026-04-27 22:12 | 43.29890 | -78.38553 | 34170 ft | 418 kts | 274° |
| 2026-04-27 22:12 | 43.29671 | -78.46559 | 34169 ft | 425 kts | 274° |
| 2026-04-27 22:13 | 43.29442 | -78.54744 | 34158 ft | 432 kts | 273° |
| 2026-04-27 22:13 | 43.29206 | -78.63034 | 34148 ft | 437 kts | 273° |
| 2026-04-27 22:14 | 43.28960 | -78.71412 | 34141 ft | 441 kts | 272° |
| 2026-04-27 22:14 | 43.28704 | -78.79830 | 34140 ft | 445 kts | 272° |
| 2026-04-27 22:15 | 43.28448 | -78.88340 | 34135 ft | 448 kts | 272° |
| 2026-04-27 22:15 | 43.28242 | -78.96899 | 34138 ft | 449 kts | 274° |
| 2026-04-27 22:16 | 43.28336 | -79.05467 | 34130 ft | 449 kts | 275° |
| 2026-04-27 22:16 | 43.28750 | -79.13994 | 34124 ft | 444 kts | 287° |
| 2026-04-27 22:17 | 43.31048 | -79.21797 | 34137 ft | 441 kts | 295° |
| 2026-04-27 22:17 | 43.33188 | -79.29717 | 34140 ft | 444 kts | 290° |
| 2026-04-27 22:18 | 43.34677 | -79.36319 | 34143 ft | 440 kts | 289° |